Time;durP1;ratioP1;P1;durP2;ratioP2;P2;SDS_P1;SDS_P2;PMS_P1;PMS_P2;Temp;Humidity;BMP_temperature;BMP_pressure;BME280_temperature;BME280_humidity;BME280_pressure;Samples;Min_cycle;Max_cycle;Signal;HPM_P1;HPM_P2
2021/12/07 00:00:53;;;;;;;12.82;9.95;;;2.70;99.90;;;;;;5143759;27;20046;-66
2021/12/07 00:03:20;;;;;;;14.70;10.73;;;2.70;99.90;;;;;;5135194;27;20047;-66
2021/12/07 00:05:47;;;;;;;11.55;9.77;;;2.70;99.90;;;;;;5147760;27;20151;-66
2021/12/07 00:08:13;;;;;;;12.00;9.15;;;2.70;99.90;;;;;;5152651;27;20042;-66
2021/12/07 00:10:39;;;;;;;11.75;9.85;;;2.60;99.90;;;;;;5143672;27;20529;-66
2021/12/07 00:13:05;;;;;;;13.10;9.55;;;2.60;99.90;;;;;;5150256;27;20074;-66
2021/12/07 00:15:31;;;;;;;12.27;9.65;;;2.60;99.90;;;;;;5149272;27;20063;-66
2021/12/07 00:17:57;;;;;;;16.85;10.57;;;2.60;99.90;;;;;;5120017;27;20047;-66
2021/12/07 00:20:24;;;;;;;11.05;8.48;;;2.60;99.90;;;;;;5136690;27;20043;-66
2021/12/07 00:22:53;;;;;;;11.68;8.70;;;2.60;99.90;;;;;;5112599;27;20039;-66
2021/12/07 00:25:19;;;;;;;9.15;8.05;;;2.60;99.90;;;;;;5124468;27;20050;-66
2021/12/07 00:27:45;;;;;;;9.27;7.22;;;2.50;99.90;;;;;;5150133;27;20095;-66
2021/12/07 00:30:12;;;;;;;8.50;7.15;;;2.50;99.90;;;;;;5148993;27;20046;-66
2021/12/07 00:32:43;;;;;;;8.02;7.10;;;2.50;99.90;;;;;;5126271;27;20054;-66
2021/12/07 00:37:43;;;;;;;8.65;7.53;;;2.60;99.90;;;;;;5125559;27;20051;-66
2021/12/07 00:40:11;;;;;;;7.07;6.13;;;2.60;99.90;;;;;;5129378;27;20035;-66
2021/12/07 00:42:36;;;;;;;7.63;6.35;;;2.60;99.90;;;;;;5134481;27;20042;-66
2021/12/07 00:45:04;;;;;;;6.95;6.05;;;2.60;99.90;;;;;;5124647;27;20050;-66
2021/12/07 00:47:30;;;;;;;6.85;6.15;;;2.50;99.90;;;;;;5127744;27;20061;-66
2021/12/07 00:49:56;;;;;;;8.60;6.78;;;2.50;99.90;;;;;;5133295;27;20039;-66
2021/12/07 00:52:23;;;;;;;6.65;5.82;;;2.40;99.90;;;;;;5131550;27;20047;-66
2021/12/07 00:54:48;;;;;;;6.60;5.90;;;2.40;99.90;;;;;;5121093;27;20091;-66
2021/12/07 00:57:15;;;;;;;6.05;5.28;;;2.40;99.90;;;;;;5122362;27;20050;-66
2021/12/07 00:59:41;;;;;;;7.93;7.10;;;2.40;99.90;;;;;;5150142;27;20027;-66
2021/12/07 01:02:07;;;;;;;8.43;7.00;;;2.40;99.90;;;;;;5133996;27;20435;-66
2021/12/07 01:04:33;;;;;;;8.95;6.63;;;2.40;99.90;;;;;;5137464;27;20042;-66
2021/12/07 01:07:04;;;;;;;7.35;6.22;;;2.30;99.90;;;;;;5112518;27;20134;-66
2021/12/07 01:24:40;;;;;;;7.43;6.72;;;2.40;99.90;;;;;;5131508;27;20051;-66
2021/12/07 01:25:52;;;;;;;7.38;6.45;;;2.50;99.90;;;;;;5133445;27;20043;-66
2021/12/07 01:28:25;;;;;;;7.45;6.28;;;2.50;99.90;;;;;;5149418;27;20107;-66
2021/12/07 01:30:59;;;;;;;7.85;6.63;;;2.50;99.90;;;;;;5129692;27;20070;-66
2021/12/07 01:36:23;;;;;;;8.90;7.57;;;2.60;99.90;;;;;;5121274;27;20664;-66
2021/12/07 01:44:11;;;;;;;7.93;7.05;;;2.60;99.90;;;;;;5128429;27;20076;-66
2021/12/07 01:46:49;;;;;;;8.63;6.85;;;2.60;99.90;;;;;;5119885;27;20050;-66
2021/12/07 01:59:54;;;;;;;9.52;8.05;;;2.70;99.90;;;;;;5138743;27;20452;-66
2021/12/07 02:02:22;;;;;;;8.63;7.57;;;2.70;99.90;;;;;;5125118;27;20048;-66
2021/12/07 02:04:48;;;;;;;9.77;8.02;;;2.70;99.90;;;;;;5148629;27;20058;-66
2021/12/07 02:07:15;;;;;;;10.57;8.90;;;2.70;99.90;;;;;;5141923;27;20082;-66
2021/12/07 02:09:45;;;;;;;11.75;8.57;;;2.70;99.90;;;;;;5128543;27;20034;-66
2021/12/07 02:12:12;;;;;;;8.98;7.80;;;2.70;99.90;;;;;;5125663;27;20127;-66
2021/12/07 02:14:38;;;;;;;10.02;8.05;;;2.80;99.90;;;;;;5129033;27;20042;-65
2021/12/07 02:17:13;;;;;;;8.50;7.60;;;2.80;99.90;;;;;;5134365;27;20448;-65
2021/12/07 02:19:39;;;;;;;9.95;8.23;;;2.90;99.90;;;;;;5144751;27;20063;-65
2021/12/07 02:22:06;;;;;;;9.60;8.43;;;2.90;99.90;;;;;;5137718;27;20084;-65
2021/12/07 02:24:32;;;;;;;10.52;8.65;;;2.80;99.90;;;;;;5122058;27;20075;-66
2021/12/07 02:26:59;;;;;;;10.23;8.35;;;3.00;99.90;;;;;;5134048;27;20456;-65
2021/12/07 02:29:24;;;;;;;9.05;7.88;;;2.90;99.90;;;;;;5133235;27;20077;-65
2021/12/07 02:31:52;;;;;;;11.00;8.35;;;2.90;99.90;;;;;;5113809;27;20098;-66
2021/12/07 02:34:17;;;;;;;8.13;7.32;;;3.00;99.90;;;;;;5129586;27;20066;-65
2021/12/07 02:36:44;;;;;;;7.78;6.72;;;3.00;99.90;;;;;;5111576;28;20670;-65
2021/12/07 02:39:11;;;;;;;9.68;7.78;;;2.90;99.90;;;;;;5129752;28;20050;-66
2021/12/07 02:41:38;;;;;;;8.75;7.13;;;3.00;99.90;;;;;;5120329;27;20095;-66
2021/12/07 02:44:06;;;;;;;8.60;7.35;;;3.00;99.90;;;;;;5109999;28;20050;-66
2021/12/07 02:46:34;;;;;;;9.80;7.60;;;2.90;99.90;;;;;;5111447;28;20071;-65
2021/12/07 02:49:00;;;;;;;9.70;6.80;;;2.90;99.90;;;;;;5112945;27;20489;-66
2021/12/07 02:51:25;;;;;;;7.82;6.65;;;2.90;99.90;;;;;;5127293;27;20047;-66
2021/12/07 02:53:51;;;;;;;9.57;7.55;;;3.00;99.90;;;;;;5116461;27;20046;-66
2021/12/07 02:56:17;;;;;;;10.30;7.35;;;3.00;99.90;;;;;;5128561;27;20042;-66
2021/12/07 02:58:44;;;;;;;8.23;7.15;;;3.00;99.90;;;;;;5134627;27;20043;-66
2021/12/07 03:01:18;;;;;;;9.68;7.55;;;2.90;99.90;;;;;;5135320;27;20046;-66
2021/12/07 03:04:03;;;;;;;10.70;7.78;;;3.00;99.90;;;;;;5135886;27;20103;-66
2021/12/07 03:06:52;;;;;;;9.32;7.35;;;3.00;99.90;;;;;;5132268;27;20118;-67
2021/12/07 03:25:56;;;;;;;8.80;7.68;;;3.10;99.90;;;;;;5139078;27;20052;-66
2021/12/07 03:26:10;;;;;;;10.27;8.38;;;3.20;99.90;;;;;;5135484;27;20126;-66
2021/12/07 03:28:42;;;;;;;11.85;8.65;;;3.20;99.90;;;;;;5143074;27;20050;-66
2021/12/07 03:31:09;;;;;;;12.73;7.93;;;3.20;99.90;;;;;;5113032;27;20050;-66
2021/12/07 03:33:36;;;;;;;11.85;9.38;;;3.20;99.90;;;;;;5138350;27;20057;-66
2021/12/07 03:36:04;;;;;;;12.07;8.45;;;3.20;99.90;;;;;;5132191;27;20486;-66
2021/12/07 03:38:30;;;;;;;10.30;7.28;;;3.30;99.90;;;;;;5129940;27;20035;-66
2021/12/07 03:40:55;;;;;;;15.65;8.70;;;3.30;99.90;;;;;;5118095;27;20130;-66
2021/12/07 03:43:21;;;;;;;12.43;7.25;;;3.30;99.90;;;;;;5138730;27;20078;-66
2021/12/07 03:45:47;;;;;;;11.32;7.95;;;3.30;99.90;;;;;;5143973;27;20446;-66
2021/12/07 03:48:14;;;;;;;10.82;7.18;;;3.30;99.90;;;;;;5134657;27;20046;-66
2021/12/07 03:50:40;;;;;;;13.35;6.97;;;3.30;99.90;;;;;;5131118;27;20047;-66
2021/12/07 03:53:06;;;;;;;12.80;6.93;;;3.30;99.90;;;;;;5131892;27;20131;-66
2021/12/07 03:55:33;;;;;;;11.73;6.90;;;3.30;99.90;;;;;;5142084;27;20042;-66
2021/12/07 03:57:58;;;;;;;8.60;5.85;;;3.30;99.90;;;;;;5151091;27;20049;-66
2021/12/07 04:00:26;;;;;;;9.85;6.30;;;3.30;99.90;;;;;;5137124;27;20393;-67
2021/12/07 04:02:53;;;;;;;10.63;6.18;;;3.30;99.90;;;;;;5126432;27;20043;-67
2021/12/07 04:05:22;;;;;;;11.30;6.57;;;3.30;99.90;;;;;;5110146;27;20050;-66
2021/12/07 04:07:49;;;;;;;10.63;5.75;;;3.30;99.90;;;;;;5129885;27;20494;-67
2021/12/07 04:10:16;;;;;;;12.02;5.80;;;3.20;99.90;;;;;;5122873;27;20083;-67
2021/12/07 04:12:42;;;;;;;9.82;5.72;;;3.20;99.90;;;;;;5113847;27;20043;-66
2021/12/07 04:15:10;;;;;;;7.93;6.10;;;3.10;99.90;;;;;;5118995;27;20127;-66
2021/12/07 04:17:36;;;;;;;10.32;5.45;;;3.10;99.90;;;;;;5135007;27;20057;-67
2021/12/07 04:20:05;;;;;;;11.52;5.68;;;3.00;99.90;;;;;;5135843;27;20434;-67
2021/12/07 04:22:30;;;;;;;6.82;4.28;;;3.00;99.90;;;;;;5149064;27;20060;-67
2021/12/07 04:24:56;;;;;;;6.63;4.55;;;2.90;99.90;;;;;;5114655;27;20121;-67
2021/12/07 04:27:21;;;;;;;8.23;4.63;;;2.90;99.90;;;;;;5136255;27;20529;-67
2021/12/07 04:29:47;;;;;;;7.75;4.70;;;2.90;99.90;;;;;;5126172;27;20459;-67
2021/12/07 04:32:14;;;;;;;8.60;4.30;;;3.00;99.90;;;;;;5120204;27;20488;-67
2021/12/07 04:34:39;;;;;;;9.30;5.03;;;2.90;99.90;;;;;;5137103;27;20145;-67
2021/12/07 04:37:05;;;;;;;7.47;3.90;;;2.90;99.90;;;;;;5119323;27;20143;-67
2021/12/07 04:39:31;;;;;;;9.88;4.93;;;2.90;99.90;;;;;;5145219;27;20081;-67
2021/12/07 04:41:56;;;;;;;5.63;3.38;;;3.00;99.90;;;;;;5131023;27;20050;-67
2021/12/07 04:44:23;;;;;;;8.93;3.33;;;2.90;99.90;;;;;;5096953;27;20051;-67
2021/12/07 04:57:45;;;;;;;5.45;2.65;;;3.00;99.90;;;;;;5131237;27;20047;-67
2021/12/07 05:00:20;;;;;;;6.45;2.80;;;2.90;99.90;;;;;;5121486;27;20521;-67
2021/12/07 05:02:52;;;;;;;8.50;2.95;;;3.10;99.90;;;;;;5117618;27;20044;-67
2021/12/07 05:05:19;;;;;;;9.13;3.40;;;3.10;99.90;;;;;;5135435;27;20104;-67
2021/12/07 05:07:48;;;;;;;7.05;2.00;;;3.20;99.90;;;;;;5113732;27;20079;-67
2021/12/07 05:10:27;;;;;;;10.30;2.22;;;3.30;99.90;;;;;;5128018;27;20099;-67
2021/12/07 05:15:33;;;;;;;9.75;2.28;;;3.40;99.90;;;;;;5146952;27;20047;-67
2021/12/07 05:18:33;;;;;;;8.40;1.90;;;3.40;99.90;;;;;;5124780;27;20065;-67
2021/12/07 05:39:54;;;;;;;3.25;1.60;;;3.30;99.90;;;;;;5110232;27;20055;-68
2021/12/07 05:42:22;;;;;;;11.65;2.28;;;3.30;99.90;;;;;;5130709;27;20067;-67
2021/12/07 05:44:48;;;;;;;8.65;1.77;;;3.40;99.90;;;;;;5130525;27;20039;-67
2021/12/07 05:47:14;;;;;;;9.45;2.05;;;3.40;99.90;;;;;;5140451;27;20058;-67
2021/12/07 05:49:39;;;;;;;9.32;2.25;;;3.40;99.90;;;;;;5138576;27;20031;-68
2021/12/07 05:52:05;;;;;;;6.85;1.50;;;3.40;99.90;;;;;;5129022;27;20469;-67
2021/12/07 05:54:31;;;;;;;7.50;2.38;;;3.40;99.90;;;;;;5129829;27;20376;-67
2021/12/07 05:56:56;;;;;;;8.38;1.40;;;3.40;99.90;;;;;;5107608;27;20437;-67
2021/12/07 05:59:22;;;;;;;8.18;2.67;;;3.40;99.90;;;;;;5124159;27;20046;-67
2021/12/07 06:01:48;;;;;;;10.27;2.28;;;3.40;99.90;;;;;;5131326;27;20047;-67
2021/12/07 06:04:13;;;;;;;5.43;2.00;;;3.40;99.90;;;;;;5111132;27;20448;-67
2021/12/07 06:06:39;;;;;;;3.88;1.70;;;3.40;99.90;;;;;;5137929;27;20190;-67
2021/12/07 06:09:06;;;;;;;11.07;2.40;;;3.30;99.90;;;;;;5151036;27;20074;-67
2021/12/07 06:11:31;;;;;;;8.30;1.95;;;3.30;99.90;;;;;;5150970;27;20493;-67
2021/12/07 06:13:57;;;;;;;7.85;2.13;;;3.30;99.90;;;;;;5125987;27;20077;-67
2021/12/07 06:16:24;;;;;;;15.52;3.47;;;3.40;99.90;;;;;;5122291;27;20051;-68
2021/12/07 06:18:50;;;;;;;9.30;3.00;;;3.40;99.90;;;;;;5122233;27;20739;-68
2021/12/07 06:21:16;;;;;;;8.15;2.67;;;3.40;99.90;;;;;;5129382;27;20044;-69
2021/12/07 06:23:42;;;;;;;11.82;3.70;;;3.30;99.90;;;;;;5100095;27;20117;-68
2021/12/07 06:26:07;;;;;;;11.23;3.60;;;3.40;99.90;;;;;;5125568;27;20039;-68
2021/12/07 06:28:33;;;;;;;8.55;2.63;;;3.50;99.90;;;;;;5110549;27;20055;-68
2021/12/07 06:30:59;;;;;;;9.85;3.00;;;3.50;99.90;;;;;;5112315;27;20501;-68
2021/12/07 06:33:26;;;;;;;9.18;2.63;;;3.50;99.90;;;;;;5150783;27;20038;-68
2021/12/07 06:35:57;;;;;;;12.73;2.95;;;3.50;99.90;;;;;;5145142;27;20039;-68
2021/12/07 06:38:31;;;;;;;9.00;3.40;;;3.50;99.90;;;;;;5130519;28;20096;-68
2021/12/07 06:40:57;;;;;;;6.03;2.65;;;3.40;99.90;;;;;;5130774;27;20049;-68
2021/12/07 06:43:23;;;;;;;12.40;3.45;;;3.40;99.90;;;;;;5131526;27;20050;-68
2021/12/07 06:45:50;;;;;;;16.20;2.95;;;3.40;99.90;;;;;;5113342;27;20446;-68
2021/12/07 06:48:16;;;;;;;8.35;2.40;;;3.50;99.90;;;;;;5148115;27;20042;-68
2021/12/07 06:50:42;;;;;;;9.95;3.22;;;3.40;99.90;;;;;;5111231;28;20043;-68
2021/12/07 06:53:08;;;;;;;11.88;3.28;;;3.40;99.90;;;;;;5111279;28;20047;-68
2021/12/07 06:55:34;;;;;;;5.40;2.42;;;3.40;99.90;;;;;;5137693;27;20049;-68
2021/12/07 06:58:00;;;;;;;8.23;2.50;;;3.40;99.90;;;;;;5129920;27;20054;-68
2021/12/07 07:00:26;;;;;;;6.55;2.50;;;3.30;99.90;;;;;;5129845;28;20051;-68
2021/12/07 07:02:51;;;;;;;7.03;2.85;;;3.30;99.90;;;;;;5138222;27;20493;-68
2021/12/07 07:05:17;;;;;;;5.72;2.08;;;3.40;99.90;;;;;;5140326;27;20040;-68
2021/12/07 07:07:43;;;;;;;6.13;1.67;;;3.30;99.90;;;;;;5142626;27;20042;-68
2021/12/07 07:10:12;;;;;;;8.85;2.47;;;3.30;99.90;;;;;;5131192;27;20042;-68
2021/12/07 07:12:38;;;;;;;11.68;2.35;;;3.40;99.90;;;;;;5150721;27;20126;-68
2021/12/07 07:15:06;;;;;;;12.82;3.00;;;3.30;99.90;;;;;;5143417;27;20140;-68
2021/12/07 07:17:31;;;;;;;12.95;3.70;;;3.30;99.90;;;;;;5130295;27;20055;-67
2021/12/07 07:19:57;;;;;;;13.88;2.47;;;3.40;99.90;;;;;;5131712;27;20079;-67
2021/12/07 07:22:23;;;;;;;15.27;3.67;;;3.50;99.90;;;;;;5131368;27;20376;-67
2021/12/07 07:24:49;;;;;;;9.27;2.65;;;3.50;99.90;;;;;;5149301;27;20035;-67
2021/12/07 07:27:14;;;;;;;10.80;2.42;;;3.50;99.90;;;;;;5143798;27;20157;-66
2021/12/07 07:29:40;;;;;;;9.80;3.05;;;3.50;99.90;;;;;;5131749;27;20080;-67
2021/12/07 07:32:06;;;;;;;10.60;2.85;;;3.50;99.90;;;;;;5149166;27;20532;-67
2021/12/07 07:34:31;;;;;;;10.82;3.05;;;3.50;99.90;;;;;;5149391;27;20039;-67
2021/12/07 07:36:57;;;;;;;9.77;2.55;;;3.50;99.90;;;;;;5135558;27;20047;-67
2021/12/07 07:39:22;;;;;;;16.00;3.20;;;3.50;99.90;;;;;;5110531;28;20095;-67
2021/12/07 07:41:49;;;;;;;6.90;3.40;;;3.50;99.90;;;;;;5130576;27;20047;-67
2021/12/07 07:44:15;;;;;;;11.15;2.78;;;3.50;99.90;;;;;;5153832;27;20046;-67
2021/12/07 07:46:41;;;;;;;8.30;2.50;;;3.50;99.90;;;;;;5153392;27;20042;-67
2021/12/07 07:49:07;;;;;;;14.95;2.78;;;3.40;99.90;;;;;;5127216;27;20097;-67
2021/12/07 07:51:33;;;;;;;11.35;2.38;;;3.40;99.90;;;;;;5143020;27;20042;-67
2021/12/07 07:53:59;;;;;;;10.05;2.85;;;3.40;99.90;;;;;;5152830;27;20065;-67
2021/12/07 07:56:27;;;;;;;9.63;3.05;;;3.40;99.90;;;;;;5131177;27;20066;-67
2021/12/07 07:58:54;;;;;;;13.10;2.65;;;3.40;99.90;;;;;;5134444;27;20611;-67
2021/12/07 08:01:20;;;;;;;11.63;3.35;;;3.40;99.90;;;;;;5148464;27;20118;-67
2021/12/07 08:03:46;;;;;;;17.58;4.05;;;3.40;99.90;;;;;;5132622;27;20062;-68
2021/12/07 08:06:12;;;;;;;10.95;3.63;;;3.50;99.90;;;;;;5130837;27;20039;-68
2021/12/07 08:08:37;;;;;;;16.20;2.80;;;3.40;99.90;;;;;;5153418;27;20049;-68
2021/12/07 08:11:03;;;;;;;8.25;1.98;;;3.40;99.90;;;;;;5153570;27;20053;-68
2021/12/07 08:13:31;;;;;;;15.13;3.40;;;3.50;99.90;;;;;;5115420;27;20061;-68
2021/12/07 08:15:56;;;;;;;14.18;3.97;;;3.50;99.90;;;;;;5153183;27;20049;-68
2021/12/07 08:18:22;;;;;;;12.38;3.97;;;3.40;99.90;;;;;;5134461;27;20137;-68
2021/12/07 08:20:48;;;;;;;12.02;2.50;;;3.40;99.90;;;;;;5152345;27;20123;-68
2021/12/07 08:23:13;;;;;;;8.10;3.38;;;3.40;99.90;;;;;;5150720;27;20054;-68
2021/12/07 08:25:43;;;;;;;12.80;1.92;;;3.40;99.90;;;;;;5112743;27;20043;-68
2021/12/07 08:28:11;;;;;;;8.68;3.03;;;3.40;99.90;;;;;;5113092;27;20451;-68
2021/12/07 08:30:38;;;;;;;10.40;2.33;;;3.50;99.90;;;;;;5113902;27;20498;-68
2021/12/07 08:33:04;;;;;;;10.73;2.80;;;3.50;99.90;;;;;;5113565;27;20074;-68
2021/12/07 08:35:31;;;;;;;7.68;2.75;;;3.50;99.90;;;;;;5129622;27;20043;-68
2021/12/07 08:37:57;;;;;;;10.02;2.97;;;3.40;99.90;;;;;;5117885;27;20910;-69
2021/12/07 08:40:25;;;;;;;10.32;2.85;;;3.50;99.90;;;;;;5134227;27;20133;-68
2021/12/07 08:42:52;;;;;;;4.82;2.03;;;3.40;99.90;;;;;;5152023;27;20694;-68
2021/12/07 08:45:20;;;;;;;10.52;2.40;;;3.50;99.90;;;;;;5115573;27;20046;-68
2021/12/07 08:47:46;;;;;;;17.05;2.75;;;3.50;99.90;;;;;;5133036;27;20061;-68
2021/12/07 08:50:16;;;;;;;10.18;2.80;;;3.50;99.90;;;;;;5132149;27;20651;-68
2021/12/07 08:52:42;;;;;;;12.00;3.63;;;3.50;99.90;;;;;;5152464;27;20091;-68
2021/12/07 09:00:26;;;;;;;12.75;3.08;;;3.50;99.90;;;;;;5113401;27;20446;-68
2021/12/07 09:02:52;;;;;;;12.55;2.83;;;3.50;99.90;;;;;;5130970;27;20565;-68
2021/12/07 09:05:17;;;;;;;13.82;3.47;;;3.50;99.90;;;;;;5133042;27;20046;-68
2021/12/07 09:07:45;;;;;;;9.15;3.60;;;3.50;99.90;;;;;;5136217;27;20119;-68
2021/12/07 09:10:10;;;;;;;19.45;3.30;;;3.60;99.90;;;;;;5112609;27;20108;-68
2021/12/07 09:12:36;;;;;;;15.05;3.42;;;3.60;99.90;;;;;;5131446;27;20482;-68
2021/12/07 09:15:03;;;;;;;17.23;3.50;;;3.60;99.90;;;;;;5129113;27;20039;-68
2021/12/07 09:17:28;;;;;;;19.35;4.55;;;3.70;99.90;;;;;;5151608;27;20066;-68
2021/12/07 09:19:54;;;;;;;15.07;4.05;;;3.70;99.90;;;;;;5151858;27;20034;-68
2021/12/07 09:22:20;;;;;;;10.48;3.28;;;3.70;99.90;;;;;;5148719;27;20091;-68
2021/12/07 09:24:46;;;;;;;10.27;3.33;;;3.80;99.90;;;;;;5130320;27;20057;-68
2021/12/07 09:27:11;;;;;;;9.15;2.85;;;3.80;99.90;;;;;;5112758;27;20405;-68
2021/12/07 09:29:37;;;;;;;14.35;4.30;;;3.90;99.90;;;;;;5142579;27;20053;-68
2021/12/07 09:32:04;;;;;;;9.25;3.13;;;4.00;99.90;;;;;;5150774;27;20085;-68
2021/12/07 09:34:30;;;;;;;14.98;3.67;;;4.10;99.90;;;;;;5132949;27;20057;-67
2021/12/07 09:36:56;;;;;;;13.95;3.30;;;4.10;99.90;;;;;;5137437;27;20142;-67
2021/12/07 09:39:22;;;;;;;15.50;3.78;;;4.10;99.90;;;;;;5130598;27;20118;-67
2021/12/07 09:41:47;;;;;;;16.23;4.32;;;4.20;99.90;;;;;;5130607;27;20041;-67
2021/12/07 09:44:13;;;;;;;15.05;3.88;;;4.30;99.90;;;;;;5151443;27;20039;-67
2021/12/07 09:46:41;;;;;;;12.23;3.08;;;4.30;99.90;;;;;;5129729;27;20047;-67
2021/12/07 09:49:08;;;;;;;10.65;3.40;;;4.40;99.90;;;;;;5125859;27;20050;-67
2021/12/07 09:51:35;;;;;;;12.95;3.45;;;4.50;99.90;;;;;;5133410;27;20750;-67
2021/12/07 09:54:00;;;;;;;18.52;4.32;;;4.60;99.90;;;;;;5115685;27;20495;-67
2021/12/07 09:56:27;;;;;;;12.15;3.05;;;4.70;99.90;;;;;;5125919;27;20096;-67
2021/12/07 09:58:55;;;;;;;23.58;4.53;;;4.70;99.90;;;;;;5128422;27;20126;-67
2021/12/07 10:01:22;;;;;;;10.90;3.63;;;4.80;99.90;;;;;;5105505;27;20064;-67
2021/12/07 10:03:48;;;;;;;12.98;3.60;;;4.90;99.90;;;;;;5109294;28;20035;-67
2021/12/07 10:06:14;;;;;;;15.73;3.78;;;4.90;99.90;;;;;;5111489;27;20440;-67
2021/12/07 10:08:40;;;;;;;14.98;3.25;;;5.00;99.90;;;;;;5136871;27;20043;-67
2021/12/07 10:11:10;;;;;;;12.95;3.83;;;5.10;99.90;;;;;;5114000;27;20074;-66
2021/12/07 10:13:39;;;;;;;18.30;4.57;;;5.20;99.90;;;;;;5138809;27;20105;-67
2021/12/07 10:16:06;;;;;;;12.88;4.18;;;5.20;99.90;;;;;;5108245;27;20077;-67
2021/12/07 10:18:36;;;;;;;10.55;3.58;;;5.20;99.90;;;;;;5131276;27;20055;-68
2021/12/07 10:21:24;;;;;;;12.90;3.90;;;5.30;99.90;;;;;;5118440;27;20039;-68
2021/12/07 10:24:01;;;;;;;21.80;4.80;;;5.30;99.90;;;;;;5110368;27;20078;-67
2021/12/07 10:26:30;;;;;;;12.38;3.58;;;5.30;99.90;;;;;;5101059;27;20042;-67
2021/12/07 10:29:00;;;;;;;15.75;3.90;;;5.30;99.90;;;;;;5108299;28;20059;-67
2021/12/07 10:31:31;;;;;;;14.98;3.58;;;5.40;99.90;;;;;;5131182;27;20046;-67
2021/12/07 10:33:59;;;;;;;18.05;3.30;;;5.40;99.90;;;;;;5104240;28;20131;-67
2021/12/07 10:36:35;;;;;;;16.23;3.38;;;5.40;99.90;;;;;;5131748;27;20070;-66
2021/12/07 10:39:26;;;;;;;14.80;3.90;;;5.50;99.90;;;;;;5128224;27;20042;-67
2021/12/07 10:41:55;;;;;;;15.77;3.92;;;5.50;99.90;;;;;;5114534;27;20058;-67
2021/12/07 10:44:24;;;;;;;14.90;3.72;;;5.60;99.90;;;;;;5126184;27;20044;-67
2021/12/07 10:47:06;;;;;;;14.35;3.08;;;5.60;99.90;;;;;;5119815;27;20043;-67
2021/12/07 10:49:46;;;;;;;14.73;4.32;;;5.70;99.90;;;;;;5136675;27;20081;-67
2021/12/07 10:52:34;;;;;;;14.20;3.08;;;5.80;99.90;;;;;;5123513;28;20055;-67
2021/12/07 10:55:09;;;;;;;14.02;3.15;;;5.80;99.90;;;;;;5140516;27;20050;-67
2021/12/07 10:57:39;;;;;;;15.82;3.47;;;5.80;99.90;;;;;;5132178;27;20038;-66
2021/12/07 11:00:27;;;;;;;10.90;3.05;;;5.90;99.90;;;;;;5133150;27;20047;-67
2021/12/07 11:03:02;;;;;;;17.02;3.47;;;5.90;99.90;;;;;;5105704;28;20439;-67
2021/12/07 11:05:30;;;;;;;11.27;2.75;;;5.90;99.90;;;;;;5128832;28;20597;-67
2021/12/07 11:07:57;;;;;;;15.63;3.97;;;6.00;99.90;;;;;;5127878;27;20669;-67
2021/12/07 11:10:30;;;;;;;16.90;4.00;;;6.00;99.90;;;;;;5113969;27;20486;-67
2021/12/07 11:13:11;;;;;;;14.97;4.43;;;6.10;99.90;;;;;;5134194;27;20043;-67
2021/12/07 11:15:47;;;;;;;14.60;3.53;;;6.10;99.90;;;;;;5127862;27;20114;-67
2021/12/07 11:18:13;;;;;;;18.58;3.60;;;6.10;99.90;;;;;;5115101;27;20133;-67
2021/12/07 11:20:39;;;;;;;14.40;3.55;;;6.20;99.90;;;;;;5125593;27;20043;-67
2021/12/07 11:23:18;;;;;;;15.60;4.30;;;6.10;99.90;;;;;;5112621;27;20046;-67
2021/12/07 11:29:39;;;;;;;22.40;4.55;;;6.20;99.90;;;;;;5132955;27;20121;-67
2021/12/07 11:31:40;;;;;;;15.30;4.13;;;6.20;99.90;;;;;;5125700;27;20051;-67
2021/12/07 11:34:26;;;;;;;17.38;4.93;;;6.20;99.90;;;;;;5116864;27;20161;-67
2021/12/07 11:36:53;;;;;;;10.45;3.75;;;6.20;99.90;;;;;;5137732;27;20066;-67
2021/12/07 11:39:19;;;;;;;19.52;4.03;;;6.30;99.90;;;;;;5131681;27;20050;-67
2021/12/07 11:41:48;;;;;;;20.40;4.28;;;6.30;99.90;;;;;;5129275;27;20042;-67
2021/12/07 11:44:13;;;;;;;23.83;5.03;;;6.40;99.90;;;;;;5137349;27;20046;-67
2021/12/07 11:46:47;;;;;;;11.45;3.00;;;6.40;99.90;;;;;;5118225;27;20045;-67
2021/12/07 11:49:27;;;;;;;12.30;3.20;;;6.50;99.90;;;;;;5114267;27;20439;-67
2021/12/07 11:51:57;;;;;;;12.25;3.38;;;6.50;99.90;;;;;;5131700;27;20096;-68
2021/12/07 11:54:27;;;;;;;23.98;4.78;;;6.60;99.90;;;;;;5105284;27;20051;-67
2021/12/07 11:56:53;;;;;;;18.08;3.85;;;6.70;99.90;;;;;;5131992;27;20447;-68
2021/12/07 11:59:19;;;;;;;14.05;3.58;;;6.90;99.90;;;;;;5144135;27;20043;-69
2021/12/07 12:01:47;;;;;;;20.48;4.53;;;7.00;99.90;;;;;;5113974;27;20174;-68
2021/12/07 12:04:15;;;;;;;13.00;3.90;;;7.20;99.90;;;;;;5153409;27;20431;-68
2021/12/07 12:06:43;;;;;;;19.33;3.25;;;7.30;99.90;;;;;;5145189;27;20081;-68
2021/12/07 12:09:09;;;;;;;12.07;3.13;;;7.40;99.90;;;;;;5108496;27;20406;-68
2021/12/07 12:11:37;;;;;;;12.27;4.22;;;7.60;99.90;;;;;;5132379;27;20055;-69
2021/12/07 12:14:47;;;;;;;14.25;3.08;;;7.70;99.90;;;;;;5131371;27;20059;-68
2021/12/07 12:17:33;;;;;;;21.00;3.80;;;7.70;99.90;;;;;;5130558;27;20055;-68
2021/12/07 12:20:01;;;;;;;13.95;3.28;;;7.60;99.90;;;;;;5128238;27;20103;-68
2021/12/07 12:22:44;;;;;;;13.95;3.85;;;7.50;99.90;;;;;;5132350;27;20129;-68
2021/12/07 12:25:18;;;;;;;11.13;3.50;;;7.40;99.90;;;;;;5124180;27;20047;-68
2021/12/07 12:27:46;;;;;;;14.43;4.15;;;7.40;99.90;;;;;;5117472;27;20402;-68
2021/12/07 12:30:21;;;;;;;12.10;4.28;;;7.50;99.90;;;;;;5128508;27;20035;-68
2021/12/07 12:32:53;;;;;;;15.20;4.95;;;7.50;99.90;;;;;;5140734;27;20082;-68
2021/12/07 12:35:31;;;;;;;13.57;4.57;;;7.40;99.90;;;;;;5112571;27;20047;-68
2021/12/07 12:37:57;;;;;;;15.80;3.72;;;7.50;99.90;;;;;;5118103;27;20047;-68
2021/12/07 12:40:26;;;;;;;19.77;3.50;;;7.50;99.90;;;;;;5111882;27;20115;-68
2021/12/07 12:42:57;;;;;;;16.33;4.43;;;7.50;99.90;;;;;;5125543;27;20040;-68
2021/12/07 12:45:30;;;;;;;13.32;3.25;;;7.50;99.90;;;;;;5132810;27;20508;-67
2021/12/07 12:47:59;;;;;;;11.82;4.60;;;7.40;99.90;;;;;;5128512;27;20047;-67
2021/12/07 12:50:31;;;;;;;17.08;3.53;;;7.40;99.90;;;;;;5130166;27;20462;-68
2021/12/07 12:53:22;;;;;;;15.40;4.13;;;7.40;99.90;;;;;;5130358;27;20035;-67
2021/12/07 12:55:50;;;;;;;18.13;3.72;;;7.20;99.90;;;;;;5115553;27;20054;-68
2021/12/07 12:58:27;;;;;;;9.93;3.05;;;7.20;99.90;;;;;;5135405;27;20069;-68
2021/12/07 13:00:57;;;;;;;15.82;4.20;;;7.10;99.90;;;;;;5120630;27;20055;-68
2021/12/07 13:03:23;;;;;;;19.25;3.58;;;7.10;99.90;;;;;;5105183;28;20075;-68
2021/12/07 13:06:00;;;;;;;12.73;3.78;;;7.20;99.90;;;;;;5108725;27;20250;-68
2021/12/07 13:08:26;;;;;;;11.90;3.53;;;7.10;99.90;;;;;;5115474;27;20099;-68
2021/12/07 13:10:57;;;;;;;16.50;3.00;;;7.10;99.90;;;;;;5108460;27;20040;-67
2021/12/07 13:13:35;;;;;;;15.73;3.17;;;7.10;99.90;;;;;;5133009;27;20073;-67
2021/12/07 13:16:15;;;;;;;13.68;4.05;;;7.10;99.90;;;;;;5129716;27;20043;-67
2021/12/07 13:18:43;;;;;;;13.55;4.07;;;7.00;99.90;;;;;;5135707;27;20117;-67
2021/12/07 13:21:41;;;;;;;9.63;3.70;;;7.00;99.90;;;;;;5149049;27;20118;-67
2021/12/07 13:24:08;;;;;;;6.85;3.35;;;7.00;99.90;;;;;;5113217;27;20050;-67
2021/12/07 13:26:40;;;;;;;12.30;3.45;;;7.00;99.90;;;;;;5141669;27;20039;-67
2021/12/07 13:29:14;;;;;;;8.52;2.78;;;7.00;99.90;;;;;;5107683;27;20052;-67
2021/12/07 13:31:51;;;;;;;10.90;4.32;;;7.00;99.90;;;;;;5126091;27;20489;-67
2021/12/07 13:34:26;;;;;;;15.98;4.38;;;7.00;99.90;;;;;;5138843;27;20387;-67
2021/12/07 13:37:04;;;;;;;18.40;5.22;;;7.00;99.90;;;;;;5123901;27;20047;-67
2021/12/07 13:39:37;;;;;;;15.93;6.00;;;7.00;99.90;;;;;;5140582;27;20064;-67
2021/12/07 13:42:20;;;;;;;16.30;4.88;;;6.90;99.90;;;;;;5128210;27;20090;-67
2021/12/07 13:45:02;;;;;;;16.05;4.25;;;6.90;99.90;;;;;;5114493;27;20051;-67
2021/12/07 13:47:30;;;;;;;15.77;5.15;;;6.90;99.90;;;;;;5128649;27;20054;-67
2021/12/07 13:50:05;;;;;;;14.02;3.92;;;6.80;99.90;;;;;;5107759;28;20043;-68
2021/12/07 13:52:33;;;;;;;17.95;5.10;;;6.80;99.90;;;;;;5112253;27;20105;-68
2021/12/07 13:55:02;;;;;;;19.70;4.15;;;6.80;99.90;;;;;;5151203;27;20035;-68
2021/12/07 13:57:32;;;;;;;21.23;4.03;;;6.70;99.90;;;;;;5145697;27;20129;-68
2021/12/07 14:00:03;;;;;;;13.93;4.45;;;6.70;99.90;;;;;;5151232;27;20038;-69
2021/12/07 14:02:29;;;;;;;15.32;4.38;;;6.70;99.90;;;;;;5114917;27;20055;-68
2021/12/07 14:05:00;;;;;;;15.43;3.17;;;6.70;99.90;;;;;;5130985;27;20053;-68
2021/12/07 14:07:25;;;;;;;16.58;4.07;;;6.70;99.90;;;;;;5151169;27;20046;-68
2021/12/07 14:09:52;;;;;;;10.50;3.75;;;6.60;99.90;;;;;;5131690;27;20035;-69
2021/12/07 14:12:22;;;;;;;23.83;5.30;;;6.60;99.90;;;;;;5111363;27;20090;-68
2021/12/07 14:14:47;;;;;;;18.17;4.40;;;6.60;99.90;;;;;;5134812;27;20078;-68
2021/12/07 14:17:13;;;;;;;17.80;4.72;;;6.50;99.90;;;;;;5151308;27;20389;-69
2021/12/07 14:19:39;;;;;;;18.45;5.05;;;6.50;99.90;;;;;;5132166;27;20039;-68
2021/12/07 14:22:04;;;;;;;14.25;4.38;;;6.40;99.90;;;;;;5150744;27;20382;-68
2021/12/07 14:24:30;;;;;;;14.80;3.63;;;6.40;99.90;;;;;;5149683;27;20122;-69
2021/12/07 14:26:55;;;;;;;15.18;4.15;;;6.40;99.90;;;;;;5131315;27;20081;-69
2021/12/07 14:29:24;;;;;;;23.15;5.45;;;6.40;99.90;;;;;;5120556;27;20408;-68